Time;durP1;ratioP1;P1;durP2;ratioP2;P2;SDS_P1;SDS_P2;PMS_P1;PMS_P2;Temp;Humidity;BMP_temperature;BMP_pressure;BME280_temperature;BME280_humidity;BME280_pressure;Samples;Min_cycle;Max_cycle;Signal;HPM_P1;HPM_P2
2021/03/16 00:01:40;;;;;;;8.27;7.47;;;;;;;;;;4831007;29;20234;-81
2021/03/16 00:04:10;;;;;;;10.70;8.00;;;;;;;;;;4815919;29;20239;-81
2021/03/16 00:06:57;;;;;;;9.03;7.47;;;;;;;;;;4831675;29;20740;-82
2021/03/16 00:09:25;;;;;;;9.63;7.00;;;;;;;;;;4828307;29;20233;-81
2021/03/16 00:11:53;;;;;;;8.50;7.07;;;;;;;;;;4810991;29;20712;-80
2021/03/16 00:14:21;;;;;;;8.43;7.07;;;;;;;;;;4837473;29;20246;-81
2021/03/16 00:16:50;;;;;;;13.07;6.90;;;;;;;;;;4819411;29;20230;-81
2021/03/16 00:19:19;;;;;;;8.40;7.07;;;;;;;;;;4820283;29;20238;-79
2021/03/16 00:21:47;;;;;;;8.37;7.20;;;;;;;;;;4806472;29;20227;-80
2021/03/16 00:24:15;;;;;;;8.43;6.80;;;;;;;;;;4799690;29;20242;-81
2021/03/16 00:26:43;;;;;;;7.67;6.87;;;;;;;;;;4805632;29;20251;-80
2021/03/16 00:29:11;;;;;;;8.17;6.00;;;;;;;;;;4816883;29;20242;-80
2021/03/16 00:31:39;;;;;;;9.87;6.97;;;;;;;;;;4799682;29;20234;-80
2021/03/16 00:34:08;;;;;;;9.07;7.53;;;;;;;;;;4846720;29;20225;-82
2021/03/16 00:36:35;;;;;;;11.90;8.87;;;;;;;;;;4860468;29;20238;-82
2021/03/16 00:39:04;;;;;;;9.43;7.87;;;;;;;;;;4821520;29;20235;-81
2021/03/16 00:41:33;;;;;;;11.77;8.20;;;;;;;;;;4831680;29;20234;-80
2021/03/16 00:44:07;;;;;;;12.77;8.40;;;;;;;;;;4822406;29;20249;-79
2021/03/16 00:46:35;;;;;;;13.70;9.27;;;;;;;;;;4816113;29;20243;-80
2021/03/16 00:49:04;;;;;;;11.67;8.87;;;;;;;;;;4803968;29;20235;-81
2021/03/16 00:51:34;;;;;;;12.07;8.13;;;;;;;;;;4816680;29;20230;-81
2021/03/16 00:54:03;;;;;;;12.83;9.00;;;;;;;;;;4823628;29;20231;-80
2021/03/16 00:56:32;;;;;;;11.30;7.97;;;;;;;;;;4817169;29;20705;-81
2021/03/16 00:59:00;;;;;;;12.60;8.60;;;;;;;;;;4834380;29;20237;-80
2021/03/16 01:01:29;;;;;;;11.73;7.93;;;;;;;;;;4812674;29;20713;-79
2021/03/16 01:03:57;;;;;;;11.17;8.63;;;;;;;;;;4816217;29;20244;-81
2021/03/16 01:06:25;;;;;;;8.60;7.40;;;;;;;;;;4791642;29;20235;-81
2021/03/16 01:08:54;;;;;;;10.60;7.10;;;;;;;;;;4804372;29;20239;-80
2021/03/16 01:11:22;;;;;;;9.67;7.00;;;;;;;;;;4809986;29;20234;-79
2021/03/16 01:13:51;;;;;;;8.70;5.87;;;;;;;;;;4830540;29;20236;-81
2021/03/16 01:16:20;;;;;;;8.47;6.13;;;;;;;;;;4839120;29;20245;-80
2021/03/16 01:18:48;;;;;;;9.03;6.17;;;;;;;;;;4816999;29;20234;-81
2021/03/16 01:21:16;;;;;;;7.90;6.33;;;;;;;;;;4858659;29;20225;-81
2021/03/16 01:23:44;;;;;;;9.40;6.90;;;;;;;;;;4836866;29;20219;-81
2021/03/16 01:26:11;;;;;;;6.97;5.93;;;;;;;;;;4844530;29;20237;-81
2021/03/16 01:28:39;;;;;;;7.60;6.17;;;;;;;;;;4810648;29;20234;-80
2021/03/16 01:31:12;;;;;;;11.23;5.90;;;;;;;;;;4806464;29;20246;-80
2021/03/16 01:33:42;;;;;;;9.97;6.47;;;;;;;;;;4802624;29;20230;-81
2021/03/16 01:36:10;;;;;;;9.27;6.60;;;;;;;;;;4803833;29;20238;-81
2021/03/16 01:38:38;;;;;;;7.67;6.17;;;;;;;;;;4808440;29;20253;-81
2021/03/16 01:41:06;;;;;;;9.10;7.30;;;;;;;;;;4816298;29;20725;-80
2021/03/16 01:43:34;;;;;;;8.33;7.03;;;;;;;;;;4839454;29;20237;-80
2021/03/16 01:46:01;;;;;;;8.40;7.07;;;;;;;;;;4812684;29;20249;-80
2021/03/16 01:48:31;;;;;;;8.00;7.03;;;;;;;;;;4814191;29;20226;-79
2021/03/16 01:51:01;;;;;;;9.63;6.87;;;;;;;;;;4827562;29;20704;-79
2021/03/16 01:53:29;;;;;;;10.03;6.80;;;;;;;;;;4828645;29;20601;-79
2021/03/16 01:55:58;;;;;;;10.93;6.73;;;;;;;;;;4822492;29;20253;-80
2021/03/16 01:58:47;;;;;;;8.70;6.70;;;;;;;;;;4836591;29;20236;-80
2021/03/16 02:02:01;;;;;;;7.53;6.20;;;;;;;;;;4842802;29;20234;-81
2021/03/16 02:04:49;;;;;;;8.53;5.70;;;;;;;;;;4843300;29;20218;-80
2021/03/16 02:07:52;;;;;;;8.07;6.00;;;;;;;;;;5448788;24;20257;-79
2021/03/16 02:10:43;;;;;;;6.80;5.20;;;;;;;;;;4844565;29;20234;-79
2021/03/16 02:13:34;;;;;;;7.00;4.87;;;;;;;;;;4847092;29;20203;-80
2021/03/16 02:16:27;;;;;;;5.83;5.23;;;;;;;;;;4862559;29;20616;-79
2021/03/16 02:19:24;;;;;;;6.30;5.47;;;;;;;;;;4841479;29;20238;-79
2021/03/16 02:22:11;;;;;;;8.17;5.40;;;;;;;;;;4847116;29;20207;-79
2021/03/16 02:25:12;;;;;;;7.63;5.27;;;;;;;;;;4862619;29;20591;-79
2021/03/16 02:28:17;;;;;;;6.73;4.70;;;;;;;;;;4861785;29;20208;-78
2021/03/16 02:31:05;;;;;;;8.77;5.17;;;;;;;;;;4853258;29;20207;-79
2021/03/16 02:33:53;;;;;;;6.77;4.43;;;;;;;;;;4858501;29;20225;-79
2021/03/16 02:36:41;;;;;;;6.60;4.97;;;;;;;;;;4839894;29;20654;-79
2021/03/16 02:39:28;;;;;;;8.30;5.30;;;;;;;;;;4844558;29;20238;-79
2021/03/16 02:42:15;;;;;;;9.40;5.40;;;;;;;;;;4837533;29;20585;-79
2021/03/16 02:45:03;;;;;;;7.53;5.40;;;;;;;;;;4860146;29;20226;-79
2021/03/16 02:47:50;;;;;;;8.97;5.70;;;;;;;;;;4877433;29;20210;-79
2021/03/16 02:50:38;;;;;;;6.33;5.40;;;;;;;;;;4872394;29;20214;-80
2021/03/16 02:53:25;;;;;;;8.37;5.40;;;;;;;;;;4876029;29;20234;-79
2021/03/16 02:56:13;;;;;;;7.90;5.60;;;;;;;;;;4842687;29;20230;-79
2021/03/16 02:59:00;;;;;;;7.10;5.27;;;;;;;;;;4840349;29;20226;-80
2021/03/16 03:01:48;;;;;;;7.67;5.47;;;;;;;;;;4840081;29;20226;-79
2021/03/16 03:04:36;;;;;;;8.90;5.60;;;;;;;;;;4845508;29;20210;-80
2021/03/16 03:07:25;;;;;;;6.70;5.43;;;;;;;;;;4839878;29;20241;-79
2021/03/16 03:10:12;;;;;;;8.00;5.27;;;;;;;;;;4860585;29;20214;-79
2021/03/16 03:12:59;;;;;;;6.33;4.97;;;;;;;;;;4859860;29;20217;-79
2021/03/16 03:15:46;;;;;;;11.43;5.80;;;;;;;;;;4847370;29;20229;-80
2021/03/16 03:18:34;;;;;;;6.97;5.97;;;;;;;;;;4848111;29;20222;-79
2021/03/16 03:21:25;;;;;;;9.87;5.73;;;;;;;;;;4844122;29;20569;-80
2021/03/16 03:24:18;;;;;;;8.13;6.30;;;;;;;;;;4858486;29;20218;-79
2021/03/16 03:27:08;;;;;;;7.10;5.57;;;;;;;;;;4861462;29;20235;-79
2021/03/16 03:29:57;;;;;;;6.23;5.03;;;;;;;;;;4846248;29;20277;-80
2021/03/16 03:32:50;;;;;;;7.53;5.47;;;;;;;;;;4872677;29;20193;-83
2021/03/16 03:41:53;;;;;;;9.20;6.57;;;;;;;;;;5405787;23;20245;-80
2021/03/16 03:44:48;;;;;;;6.63;6.03;;;;;;;;;;4877660;29;20233;-80
2021/03/16 03:47:36;;;;;;;6.73;5.90;;;;;;;;;;4849053;29;20214;-80
2021/03/16 03:50:23;;;;;;;9.27;6.07;;;;;;;;;;4860799;29;20194;-80
2021/03/16 03:53:11;;;;;;;8.17;5.63;;;;;;;;;;4862623;29;20229;-81
2021/03/16 03:55:58;;;;;;;6.83;5.63;;;;;;;;;;4857466;29;20245;-80
2021/03/16 03:58:47;;;;;;;8.37;5.40;;;;;;;;;;4849640;29;20234;-80
2021/03/16 04:01:35;;;;;;;8.70;6.20;;;;;;;;;;4854566;29;20238;-81
2021/03/16 04:04:23;;;;;;;8.67;5.73;;;;;;;;;;4859255;29;20236;-80
2021/03/16 04:07:10;;;;;;;8.50;5.87;;;;;;;;;;4865925;29;20230;-80
2021/03/16 04:09:57;;;;;;;9.20;5.87;;;;;;;;;;4878444;29;20217;-80
2021/03/16 04:12:45;;;;;;;7.50;5.67;;;;;;;;;;4855150;29;20213;-80
2021/03/16 04:15:33;;;;;;;8.83;5.60;;;;;;;;;;4856903;29;20249;-80
2021/03/16 04:18:20;;;;;;;7.43;6.17;;;;;;;;;;4849865;29;20611;-80
2021/03/16 04:21:07;;;;;;;6.97;5.33;;;;;;;;;;4865376;29;20217;-80
2021/03/16 04:23:55;;;;;;;9.77;5.93;;;;;;;;;;4858122;29;20217;-80
2021/03/16 04:26:42;;;;;;;6.83;5.80;;;;;;;;;;4850290;29;20234;-80
2021/03/16 04:29:29;;;;;;;9.90;6.40;;;;;;;;;;4856115;29;20218;-80
2021/03/16 04:32:16;;;;;;;8.30;5.33;;;;;;;;;;4860704;29;20207;-80
2021/03/16 04:35:05;;;;;;;8.10;6.03;;;;;;;;;;4853077;29;20218;-80
2021/03/16 04:37:51;;;;;;;7.90;5.63;;;;;;;;;;4864338;29;20234;-80
2021/03/16 04:40:54;;;;;;;6.67;5.70;;;;;;;;;;4859468;29;20230;-80
2021/03/16 04:43:42;;;;;;;7.90;5.77;;;;;;;;;;4858409;29;20206;-79
2021/03/16 04:46:29;;;;;;;6.27;5.40;;;;;;;;;;4854493;29;20239;-79
2021/03/16 04:49:20;;;;;;;8.23;5.97;;;;;;;;;;4855070;29;20211;-79
2021/03/16 04:52:06;;;;;;;9.90;6.30;;;;;;;;;;4853325;29;20225;-79
2021/03/16 04:54:56;;;;;;;11.67;6.77;;;;;;;;;;4863053;29;20224;-79
2021/03/16 04:57:43;;;;;;;8.37;6.00;;;;;;;;;;4873837;29;20708;-80
2021/03/16 05:00:30;;;;;;;10.17;6.77;;;;;;;;;;4871678;29;20221;-79
2021/03/16 05:03:17;;;;;;;9.10;6.07;;;;;;;;;;4886728;29;20190;-82
2021/03/16 05:12:20;;;;;;;7.67;5.50;;;;;;;;;;5763738;23;20238;-80
2021/03/16 05:15:08;;;;;;;8.57;5.70;;;;;;;;;;4844969;29;20238;-80
2021/03/16 05:17:55;;;;;;;7.10;6.03;;;;;;;;;;4860697;29;20238;-80
2021/03/16 05:20:42;;;;;;;6.10;5.50;;;;;;;;;;4848191;29;20233;-80
2021/03/16 05:23:29;;;;;;;7.63;5.00;;;;;;;;;;4843314;29;20234;-79
2021/03/16 05:26:16;;;;;;;7.63;5.47;;;;;;;;;;4844367;29;20240;-79
2021/03/16 05:29:23;;;;;;;9.00;5.10;;;;;;;;;;4847110;29;20233;-80
2021/03/16 05:32:10;;;;;;;7.27;5.00;;;;;;;;;;4859079;29;20238;-79
2021/03/16 05:34:56;;;;;;;9.20;5.70;;;;;;;;;;4861753;29;20244;-80
2021/03/16 05:37:43;;;;;;;9.63;5.77;;;;;;;;;;4848515;29;20234;-80
2021/03/16 05:40:32;;;;;;;6.27;5.23;;;;;;;;;;4866697;29;20230;-80
2021/03/16 05:43:20;;;;;;;8.37;5.73;;;;;;;;;;4833849;29;20242;-79
2021/03/16 05:46:09;;;;;;;8.40;5.33;;;;;;;;;;4849338;29;20239;-80
2021/03/16 05:48:56;;;;;;;5.60;4.63;;;;;;;;;;4831410;29;20234;-80
2021/03/16 05:51:43;;;;;;;11.03;5.53;;;;;;;;;;4852284;29;20226;-80
2021/03/16 05:54:30;;;;;;;7.60;5.50;;;;;;;;;;4826268;29;20719;-80
2021/03/16 05:57:17;;;;;;;7.83;5.30;;;;;;;;;;4843486;29;20238;-80
2021/03/16 06:00:04;;;;;;;6.30;5.10;;;;;;;;;;4846036;29;20663;-79
2021/03/16 06:02:52;;;;;;;7.53;6.03;;;;;;;;;;4836347;29;20258;-80
2021/03/16 06:05:39;;;;;;;8.17;5.10;;;;;;;;;;4862401;29;20230;-80
2021/03/16 06:08:26;;;;;;;8.70;5.57;;;;;;;;;;4835366;29;20226;-80
2021/03/16 06:11:12;;;;;;;8.03;5.17;;;;;;;;;;4840152;29;20261;-79
2021/03/16 06:14:00;;;;;;;6.27;5.03;;;;;;;;;;4843508;29;20239;-80
2021/03/16 06:16:46;;;;;;;7.67;4.97;;;;;;;;;;4846085;29;20227;-79
2021/03/16 06:19:36;;;;;;;5.70;5.00;;;;;;;;;;4829730;29;20231;-80
2021/03/16 06:22:23;;;;;;;8.70;5.40;;;;;;;;;;4848535;29;20235;-80
2021/03/16 06:25:10;;;;;;;6.97;4.80;;;;;;;;;;4848334;29;20237;-82
2021/03/16 06:28:01;;;;;;;9.17;5.10;;;;;;;;;;4867772;29;20194;-82
2021/03/16 06:30:49;;;;;;;6.37;5.50;;;;;;;;;;4836765;29;20246;-80
2021/03/16 06:33:37;;;;;;;7.10;5.33;;;;;;;;;;4852424;29;20237;-80
2021/03/16 06:36:26;;;;;;;8.67;5.30;;;;;;;;;;4852276;29;20229;-79
2021/03/16 06:39:18;;;;;;;8.80;4.97;;;;;;;;;;4832272;29;20261;-79
2021/03/16 06:42:05;;;;;;;8.00;5.07;;;;;;;;;;4832920;29;20226;-79
2021/03/16 06:45:04;;;;;;;7.27;5.07;;;;;;;;;;4846337;29;20375;-79
2021/03/16 06:47:50;;;;;;;7.07;5.40;;;;;;;;;;4842221;29;20234;-79
2021/03/16 06:50:37;;;;;;;9.57;6.17;;;;;;;;;;4854352;29;20246;-79
2021/03/16 06:53:28;;;;;;;8.30;5.40;;;;;;;;;;4851914;29;20612;-80
2021/03/16 06:56:28;;;;;;;8.83;5.23;;;;;;;;;;4852353;29;20233;-79
2021/03/16 06:59:20;;;;;;;7.00;4.93;;;;;;;;;;4852036;29;20238;-78
2021/03/16 07:02:13;;;;;;;7.03;5.03;;;;;;;;;;4837308;29;20238;-79
2021/03/16 07:05:00;;;;;;;5.67;4.77;;;;;;;;;;4847624;29;20796;-79
2021/03/16 07:07:47;;;;;;;6.67;5.47;;;;;;;;;;4826373;29;20226;-79
2021/03/16 07:10:35;;;;;;;7.07;5.10;;;;;;;;;;4856455;29;20234;-78
2021/03/16 07:13:22;;;;;;;6.93;5.60;;;;;;;;;;4873970;29;20226;-78
2021/03/16 07:16:09;;;;;;;11.77;5.07;;;;;;;;;;4868553;29;20242;-80
2021/03/16 07:18:55;;;;;;;9.50;4.83;;;;;;;;;;4869332;29;20230;-79
2021/03/16 07:21:52;;;;;;;6.77;5.00;;;;;;;;;;4869417;29;20257;-79
2021/03/16 07:24:40;;;;;;;7.50;4.80;;;;;;;;;;4848123;29;20217;-79
2021/03/16 07:27:27;;;;;;;7.17;5.30;;;;;;;;;;4848503;29;20224;-79
2021/03/16 07:30:15;;;;;;;6.27;5.37;;;;;;;;;;4854613;29;20256;-79
2021/03/16 07:33:08;;;;;;;8.40;5.27;;;;;;;;;;4858702;29;20597;-79
2021/03/16 07:35:56;;;;;;;7.30;4.90;;;;;;;;;;4853433;29;20250;-81
2021/03/16 07:38:52;;;;;;;7.07;5.13;;;;;;;;;;4849116;29;20234;-79
2021/03/16 07:41:41;;;;;;;6.87;4.50;;;;;;;;;;4851397;29;20233;-79
2021/03/16 07:44:30;;;;;;;7.87;4.70;;;;;;;;;;4850278;29;20233;-79
2021/03/16 07:47:17;;;;;;;7.60;4.83;;;;;;;;;;4828407;29;20234;-79
2021/03/16 07:50:06;;;;;;;8.23;4.63;;;;;;;;;;4857068;29;20238;-79
2021/03/16 07:52:58;;;;;;;5.40;4.43;;;;;;;;;;4852137;29;20226;-79
2021/03/16 07:55:45;;;;;;;6.97;4.70;;;;;;;;;;4850162;29;20237;-79
2021/03/16 08:02:03;;;;;;;6.70;4.43;;;;;;;;;;4830572;29;20285;-80
2021/03/16 08:04:50;;;;;;;7.20;5.50;;;;;;;;;;4833737;29;20226;-81
2021/03/16 08:07:39;;;;;;;6.93;5.47;;;;;;;;;;4858605;29;20305;-80
2021/03/16 08:10:27;;;;;;;12.60;7.73;;;;;;;;;;4830270;29;20223;-80
2021/03/16 08:13:21;;;;;;;5.13;4.03;;;;;;;;;;4834104;29;20211;-80
2021/03/16 08:16:12;;;;;;;7.33;4.20;;;;;;;;;;4838307;29;20650;-80
2021/03/16 08:19:12;;;;;;;5.63;4.03;;;;;;;;;;4831693;29;20306;-80
2021/03/16 08:22:00;;;;;;;8.60;4.50;;;;;;;;;;4817347;29;20733;-80
2021/03/16 08:24:51;;;;;;;5.30;4.30;;;;;;;;;;4821938;29;20230;-80
2021/03/16 08:27:39;;;;;;;9.53;3.83;;;;;;;;;;4839426;29;20234;-80
2021/03/16 08:30:27;;;;;;;6.40;3.67;;;;;;;;;;4830959;29;20329;-80
2021/03/16 08:33:15;;;;;;;6.70;3.30;;;;;;;;;;4828091;29;20238;-80
2021/03/16 08:36:03;;;;;;;5.00;3.40;;;;;;;;;;4832382;29;20317;-81
2021/03/16 08:38:52;;;;;;;8.43;4.07;;;;;;;;;;4835073;29;20231;-81
2021/03/16 08:41:38;;;;;;;4.77;3.10;;;;;;;;;;4846317;29;20215;-80
2021/03/16 08:44:25;;;;;;;9.00;3.77;;;;;;;;;;4837255;29;20237;-80
2021/03/16 08:47:12;;;;;;;6.20;3.03;;;;;;;;;;4819942;29;20254;-80
2021/03/16 08:49:59;;;;;;;8.37;3.83;;;;;;;;;;4813329;29;20271;-80
2021/03/16 08:52:46;;;;;;;5.17;2.80;;;;;;;;;;4814089;29;20712;-80
2021/03/16 08:55:32;;;;;;;4.63;3.03;;;;;;;;;;4834205;29;20239;-80
2021/03/16 08:58:19;;;;;;;7.13;3.93;;;;;;;;;;4818798;29;20245;-80
2021/03/16 09:01:05;;;;;;;10.17;3.50;;;;;;;;;;4824074;29;20590;-80
2021/03/16 09:03:52;;;;;;;3.33;2.53;;;;;;;;;;4811752;29;20242;-80
2021/03/16 09:06:39;;;;;;;4.90;2.97;;;;;;;;;;4817351;29;20241;-80
2021/03/16 09:09:27;;;;;;;6.10;3.23;;;;;;;;;;4846439;29;20246;-82
2021/03/16 09:12:25;;;;;;;4.77;2.60;;;;;;;;;;4881176;29;20214;-81
2021/03/16 09:15:13;;;;;;;5.43;3.50;;;;;;;;;;4845323;29;20238;-80
2021/03/16 09:18:01;;;;;;;8.00;3.40;;;;;;;;;;4861824;29;20238;-80
2021/03/16 09:20:48;;;;;;;4.83;2.67;;;;;;;;;;4864825;29;20334;-80
2021/03/16 09:23:34;;;;;;;4.77;2.70;;;;;;;;;;4853588;29;20230;-81
2021/03/16 09:26:27;;;;;;;5.07;3.27;;;;;;;;;;4848940;29;20819;-80
2021/03/16 09:29:14;;;;;;;6.63;2.97;;;;;;;;;;4856213;29;20226;-80
2021/03/16 09:32:01;;;;;;;5.80;2.73;;;;;;;;;;4853127;29;20263;-80
2021/03/16 09:34:48;;;;;;;6.87;2.70;;;;;;;;;;4852306;29;20723;-80
2021/03/16 09:37:42;;;;;;;3.97;2.70;;;;;;;;;;4849806;29;20236;-80
2021/03/16 09:40:47;;;;;;;3.27;2.70;;;;;;;;;;4845696;29;20237;-81
2021/03/16 09:43:28;;;;;;;3.87;2.70;;;;;;;;;;4825753;29;20248;-80
2021/03/16 09:45:58;;;;;;;4.10;2.80;;;;;;;;;;4824942;29;20250;-80
2021/03/16 09:48:27;;;;;;;4.40;2.77;;;;;;;;;;4849219;29;20230;-79
2021/03/16 09:50:58;;;;;;;7.03;2.90;;;;;;;;;;4837868;29;20233;-80
2021/03/16 09:53:29;;;;;;;4.70;2.90;;;;;;;;;;4844388;29;20240;-80
2021/03/16 09:55:57;;;;;;;7.63;3.60;;;;;;;;;;4820820;29;20245;-80
2021/03/16 09:58:28;;;;;;;7.60;3.00;;;;;;;;;;4855157;29;20229;-81
2021/03/16 10:00:56;;;;;;;5.77;3.17;;;;;;;;;;4824422;29;20233;-80
2021/03/16 10:03:24;;;;;;;3.83;2.83;;;;;;;;;;4833976;29;20237;-82
2021/03/16 10:06:03;;;;;;;7.93;3.20;;;;;;;;;;4846344;29;20234;-79
2021/03/16 10:08:30;;;;;;;4.87;2.90;;;;;;;;;;4856363;29;20292;-79
2021/03/16 10:10:58;;;;;;;3.63;2.80;;;;;;;;;;4858628;29;20248;-79
2021/03/16 10:13:31;;;;;;;6.30;2.40;;;;;;;;;;4815828;29;20705;-80
2021/03/16 10:16:07;;;;;;;3.00;2.30;;;;;;;;;;4855204;29;20602;-80
2021/03/16 10:18:40;;;;;;;4.40;2.77;;;;;;;;;;4854591;29;20230;-79
2021/03/16 10:21:08;;;;;;;4.13;2.40;;;;;;;;;;4842427;29;20704;-79
2021/03/16 10:23:35;;;;;;;3.87;2.13;;;;;;;;;;4842049;29;20722;-79
2021/03/16 10:26:06;;;;;;;4.37;2.20;;;;;;;;;;4840947;29;20778;-79
2021/03/16 10:28:35;;;;;;;4.63;1.80;;;;;;;;;;4841628;29;20230;-81
2021/03/16 10:31:13;;;;;;;6.17;2.27;;;;;;;;;;4839559;29;20245;-79
2021/03/16 10:33:42;;;;;;;3.00;2.10;;;;;;;;;;4834134;29;20599;-78
2021/03/16 10:36:10;;;;;;;4.83;2.60;;;;;;;;;;4833085;29;20234;-80
2021/03/16 10:38:38;;;;;;;4.23;2.07;;;;;;;;;;4843775;29;20241;-79
2021/03/16 10:41:05;;;;;;;3.43;2.23;;;;;;;;;;4845520;29;20218;-81
2021/03/16 10:43:45;;;;;;;4.80;2.00;;;;;;;;;;4823234;29;20498;-80
2021/03/16 10:46:13;;;;;;;3.27;2.33;;;;;;;;;;4859573;29;20246;-81
2021/03/16 10:48:41;;;;;;;4.00;2.30;;;;;;;;;;4845318;29;20241;-80
2021/03/16 10:51:09;;;;;;;2.20;1.90;;;;;;;;;;4855489;29;20241;-79
2021/03/16 10:53:36;;;;;;;4.40;2.20;;;;;;;;;;4851957;29;20233;-79
2021/03/16 10:56:05;;;;;;;3.23;1.80;;;;;;;;;;4816966;29;20261;-81
2021/03/16 10:58:33;;;;;;;3.40;2.13;;;;;;;;;;4836428;29;20235;-79
2021/03/16 11:01:01;;;;;;;3.73;2.00;;;;;;;;;;4850775;29;20242;-80
2021/03/16 11:03:33;;;;;;;2.90;1.50;;;;;;;;;;4843177;29;20245;-80
2021/03/16 11:06:02;;;;;;;2.40;1.53;;;;;;;;;;4817569;29;20605;-78
2021/03/16 11:08:31;;;;;;;4.73;2.10;;;;;;;;;;4840357;29;20239;-79
2021/03/16 11:10:59;;;;;;;4.40;1.70;;;;;;;;;;4834208;29;20233;-79
2021/03/16 11:13:27;;;;;;;4.90;1.90;;;;;;;;;;4828557;29;20258;-79
2021/03/16 11:15:54;;;;;;;3.20;1.97;;;;;;;;;;4837361;29;20505;-79
2021/03/16 11:18:23;;;;;;;6.97;2.27;;;;;;;;;;4859559;29;20245;-82
2021/03/16 11:20:51;;;;;;;3.13;1.90;;;;;;;;;;4859468;29;20222;-80
2021/03/16 11:23:18;;;;;;;3.53;1.70;;;;;;;;;;4852812;29;20245;-82
2021/03/16 11:25:46;;;;;;;4.47;1.70;;;;;;;;;;4835781;29;20249;-79
2021/03/16 11:28:13;;;;;;;4.97;2.03;;;;;;;;;;4832652;29;20246;-79
2021/03/16 11:30:41;;;;;;;3.67;2.20;;;;;;;;;;4823065;29;20238;-79
2021/03/16 11:33:09;;;;;;;3.53;1.90;;;;;;;;;;4841763;29;20235;-81
2021/03/16 11:35:57;;;;;;;2.50;1.60;;;;;;;;;;4843134;29;20238;-79
2021/03/16 11:38:44;;;;;;;5.43;1.90;;;;;;;;;;4845930;29;20235;-79
2021/03/16 11:41:31;;;;;;;3.83;1.90;;;;;;;;;;4836135;29;20323;-79
2021/03/16 11:44:17;;;;;;;5.37;1.90;;;;;;;;;;4839357;29;20719;-80
2021/03/16 11:47:24;;;;;;;3.60;1.53;;;;;;;;;;4854773;29;20237;-79
2021/03/16 11:50:11;;;;;;;4.73;1.70;;;;;;;;;;4835831;29;20234;-80
2021/03/16 11:52:59;;;;;;;2.57;1.40;;;;;;;;;;4835149;29;20246;-80
2021/03/16 11:55:45;;;;;;;4.47;1.60;;;;;;;;;;4833110;29;20242;-80
2021/03/16 11:58:32;;;;;;;1.80;1.40;;;;;;;;;;4833786;29;20234;-80
2021/03/16 12:01:18;;;;;;;4.33;1.50;;;;;;;;;;4863983;29;20236;-85
2021/03/16 12:04:05;;;;;;;2.83;1.60;;;;;;;;;;4875663;29;20220;-82
2021/03/16 12:06:52;;;;;;;2.07;1.13;;;;;;;;;;4857184;29;20604;-79
2021/03/16 12:09:39;;;;;;;1.53;1.10;;;;;;;;;;4857659;29;20250;-79
2021/03/16 12:12:25;;;;;;;3.10;1.40;;;;;;;;;;4839141;29;20230;-79
2021/03/16 12:15:14;;;;;;;3.53;1.90;;;;;;;;;;4846736;29;20241;-80
2021/03/16 12:18:01;;;;;;;3.07;1.57;;;;;;;;;;4860845;29;20241;-79
2021/03/16 12:20:49;;;;;;;3.87;1.70;;;;;;;;;;4854662;29;20234;-82
2021/03/16 12:23:36;;;;;;;2.23;1.30;;;;;;;;;;4850632;29;20222;-81
2021/03/16 12:26:23;;;;;;;3.73;1.60;;;;;;;;;;4829908;29;20233;-80
2021/03/16 12:29:10;;;;;;;3.00;1.67;;;;;;;;;;4855771;29;20230;-79
2021/03/16 12:31:56;;;;;;;2.80;1.33;;;;;;;;;;4858847;29;20256;-79
2021/03/16 12:34:58;;;;;;;4.60;1.30;;;;;;;;;;4856858;29;20230;-79
2021/03/16 12:37:44;;;;;;;2.70;1.37;;;;;;;;;;4857250;29;20233;-80
2021/03/16 12:40:31;;;;;;;3.13;1.30;;;;;;;;;;4839282;29;20229;-80
2021/03/16 12:43:20;;;;;;;1.80;1.50;;;;;;;;;;4854253;29;20640;-80
2021/03/16 12:46:06;;;;;;;2.67;1.60;;;;;;;;;;4843452;29;20817;-81
2021/03/16 12:48:53;;;;;;;3.67;1.30;;;;;;;;;;4857804;29;20238;-82
2021/03/16 12:51:39;;;;;;;1.80;1.30;;;;;;;;;;4855293;29;20233;-79
2021/03/16 12:54:25;;;;;;;4.63;1.60;;;;;;;;;;4862113;29;20238;-81
2021/03/16 12:57:12;;;;;;;1.07;0.90;;;;;;;;;;4858125;29;20237;-80
2021/03/16 12:59:59;;;;;;;2.67;1.33;;;;;;;;;;4836953;29;20237;-80
2021/03/16 13:02:45;;;;;;;4.47;1.40;;;;;;;;;;4836559;29;20226;-79
2021/03/16 13:05:32;;;;;;;2.60;1.20;;;;;;;;;;4842956;29;20230;-80
2021/03/16 13:08:19;;;;;;;4.47;1.60;;;;;;;;;;4838099;29;20242;-79
2021/03/16 13:11:05;;;;;;;4.33;1.50;;;;;;;;;;4859406;29;20229;-79
2021/03/16 13:13:51;;;;;;;2.77;1.73;;;;;;;;;;4848130;29;20230;-80
2021/03/16 13:16:39;;;;;;;3.73;1.37;;;;;;;;;;4839780;29;20623;-80
2021/03/16 13:19:27;;;;;;;3.93;1.37;;;;;;;;;;4851675;29;20226;-79
2021/03/16 13:22:14;;;;;;;2.67;1.43;;;;;;;;;;4833985;29;20759;-79
2021/03/16 13:25:00;;;;;;;3.47;1.30;;;;;;;;;;4832401;29;20226;-80
2021/03/16 13:27:46;;;;;;;1.37;1.10;;;;;;;;;;4842752;29;20726;-79
2021/03/16 13:30:33;;;;;;;2.43;1.27;;;;;;;;;;4837729;29;20233;-78
2021/03/16 13:33:20;;;;;;;2.70;1.17;;;;;;;;;;4857527;29;20226;-80
2021/03/16 13:36:07;;;;;;;2.13;0.83;;;;;;;;;;4835279;29;20249;-80
2021/03/16 13:38:53;;;;;;;1.10;1.00;;;;;;;;;;4845515;29;20234;-80
2021/03/16 13:41:39;;;;;;;2.27;0.90;;;;;;;;;;4849403;29;20241;-80
2021/03/16 13:44:25;;;;;;;3.30;1.30;;;;;;;;;;4861585;29;20233;-81
2021/03/16 13:47:11;;;;;;;4.13;1.30;;;;;;;;;;4863772;29;20238;-80
2021/03/16 13:49:59;;;;;;;2.63;1.30;;;;;;;;;;4869404;29;20659;-80
2021/03/16 13:52:45;;;;;;;1.13;0.90;;;;;;;;;;4862922;29;20613;-80
2021/03/16 13:55:31;;;;;;;1.43;1.10;;;;;;;;;;4857380;29;20253;-79
2021/03/16 13:58:18;;;;;;;2.63;1.37;;;;;;;;;;4855169;29;20241;-79
2021/03/16 14:01:04;;;;;;;1.20;1.10;;;;;;;;;;4845809;29;20254;-79
2021/03/16 14:03:50;;;;;;;5.30;1.50;;;;;;;;;;4835930;29;20239;-79
2021/03/16 14:06:44;;;;;;;3.13;1.50;;;;;;;;;;4837994;29;20326;-80
2021/03/16 14:09:30;;;;;;;2.20;1.20;;;;;;;;;;4841081;29;20226;-79
2021/03/16 14:12:16;;;;;;;2.73;1.30;;;;;;;;;;4839757;29;20258;-79
2021/03/16 14:15:04;;;;;;;1.30;1.10;;;;;;;;;;4854482;29;20231;-81
2021/03/16 14:17:50;;;;;;;1.20;1.10;;;;;;;;;;4840432;29;20242;-78
2021/03/16 14:20:37;;;;;;;1.77;1.20;;;;;;;;;;4847034;29;20250;-80
2021/03/16 14:23:24;;;;;;;1.23;0.97;;;;;;;;;;4855854;29;20245;-80
2021/03/16 14:26:11;;;;;;;1.63;1.20;;;;;;;;;;4840599;29;20297;-80
2021/03/16 14:28:57;;;;;;;2.20;1.30;;;;;;;;;;4832571;29;20250;-82
2021/03/16 14:31:44;;;;;;;1.80;1.40;;;;;;;;;;4855972;29;20262;-80
2021/03/16 14:34:31;;;;;;;2.73;1.27;;;;;;;;;;4836069;29;20592;-82
2021/03/16 14:37:17;;;;;;;2.53;1.30;;;;;;;;;;4832848;29;20230;-85
2021/03/16 14:40:06;;;;;;;4.73;1.27;;;;;;;;;;4842710;29;20243;-81
2021/03/16 14:42:52;;;;;;;1.60;1.23;;;;;;;;;;4841504;29;20241;-85
2021/03/16 14:45:38;;;;;;;3.10;1.30;;;;;;;;;;4843460;29;20230;-79
2021/03/16 14:48:25;;;;;;;4.00;1.43;;;;;;;;;;4841602;29;20226;-78
2021/03/16 14:51:11;;;;;;;3.40;1.33;;;;;;;;;;4850796;29;20242;-79
2021/03/16 14:53:58;;;;;;;3.20;1.43;;;;;;;;;;4870674;29;20231;-91
2021/03/16 14:56:45;;;;;;;2.33;1.30;;;;;;;;;;4860163;29;20227;-87
2021/03/16 14:59:31;;;;;;;4.70;1.63;;;;;;;;;;4863264;29;20223;-83
2021/03/16 15:02:17;;;;;;;2.50;1.67;;;;;;;;;;4851671;29;20238;-79
2021/03/16 15:05:04;;;;;;;2.03;1.37;;;;;;;;;;4861268;29;20215;-82
2021/03/16 15:07:51;;;;;;;2.20;1.57;;;;;;;;;;4863693;29;20240;-85
2021/03/16 15:10:38;;;;;;;3.43;1.50;;;;;;;;;;4851659;29;20237;-78
2021/03/16 15:13:25;;;;;;;2.70;1.43;;;;;;;;;;4837675;29;20227;-82
2021/03/16 15:16:12;;;;;;;4.37;1.40;;;;;;;;;;4832737;29;20270;-78
2021/03/16 15:18:59;;;;;;;6.17;1.50;;;;;;;;;;4838535;29;20234;-80
2021/03/16 15:21:46;;;;;;;2.20;1.60;;;;;;;;;;4840316;29;20247;-78
2021/03/16 15:24:32;;;;;;;3.60;1.50;;;;;;;;;;4834677;29;20230;-79
2021/03/16 15:27:19;;;;;;;2.73;1.27;;;;;;;;;;4835925;29;20237;-79
2021/03/16 15:30:08;;;;;;;4.50;1.50;;;;;;;;;;4832108;29;20732;-80
2021/03/16 15:32:54;;;;;;;4.90;1.63;;;;;;;;;;4838179;29;20241;-82
2021/03/16 15:35:41;;;;;;;4.50;1.43;;;;;;;;;;4839107;29;20230;-87
2021/03/16 15:38:28;;;;;;;2.37;1.43;;;;;;;;;;4838981;29;20779;-79
2021/03/16 15:41:16;;;;;;;2.93;1.30;;;;;;;;;;4839326;29;20734;-82
2021/03/16 15:44:02;;;;;;;3.97;1.90;;;;;;;;;;4826849;29;20692;-78
2021/03/16 15:46:50;;;;;;;3.93;1.73;;;;;;;;;;4836844;29;20242;-86
2021/03/16 15:49:36;;;;;;;2.13;1.67;;;;;;;;;;4841699;29;20234;-78
2021/03/16 15:52:24;;;;;;;3.73;1.50;;;;;;;;;;4842889;29;20237;-78
2021/03/16 15:55:12;;;;;;;3.60;1.83;;;;;;;;;;4849776;29;20239;-78
2021/03/16 15:57:58;;;;;;;3.50;1.90;;;;;;;;;;4836258;29;20239;-79
2021/03/16 16:00:46;;;;;;;2.57;1.90;;;;;;;;;;4836909;29;20242;-78
2021/03/16 16:03:33;;;;;;;4.90;1.80;;;;;;;;;;4818232;29;20236;-79
2021/03/16 16:06:20;;;;;;;1.97;1.30;;;;;;;;;;4838789;29;20256;-80
2021/03/16 16:09:07;;;;;;;3.37;1.70;;;;;;;;;;4837287;29;20739;-79
2021/03/16 16:11:53;;;;;;;4.57;1.63;;;;;;;;;;4829140;29;20716;-84
2021/03/16 16:14:40;;;;;;;3.37;1.63;;;;;;;;;;4837134;29;20607;-83
2021/03/16 16:17:26;;;;;;;4.57;1.30;;;;;;;;;;4834409;29;20230;-79
2021/03/16 16:20:15;;;;;;;2.77;1.40;;;;;;;;;;4818530;29;20269;-79
2021/03/16 16:23:04;;;;;;;2.10;1.40;;;;;;;;;;4833573;29;20237;-79
2021/03/16 16:25:50;;;;;;;5.33;1.40;;;;;;;;;;4819195;29;20240;-79
2021/03/16 16:28:37;;;;;;;2.67;1.60;;;;;;;;;;4818088;29;20230;-79
2021/03/16 16:31:28;;;;;;;3.93;1.57;;;;;;;;;;4831136;29;20281;-80
2021/03/16 16:34:14;;;;;;;3.67;1.80;;;;;;;;;;4821358;29;20768;-79
2021/03/16 16:37:01;;;;;;;3.57;1.40;;;;;;;;;;4819437;29;20239;-81